Time,TemperatureF,DewpointF,PressureIn,WindDirection,WindDirectionDegrees,WindSpeedMPH,WindSpeedGustMPH,Humidity,HourlyPrecipIn,Conditions,Clouds,dailyrainin,SoftwareType,DateUTC
2013-02-17 00:05:00,37.6,32.3,30.04,ESE,112,2.7,-999.0,81,-99.99,,,0.00,Acu-Link.com,2013-02-17 06:05:00,
2013-02-17 00:20:00,37.4,32.1,30.03,ESE,112,3.1,-999.0,81,-99.99,,,0.00,Acu-Link.com,2013-02-17 06:20:00,
2013-02-17 00:35:00,36.5,31.8,30.03,ESE,112,3.1,-999.0,83,-99.99,,,0.00,Acu-Link.com,2013-02-17 06:35:00,
2013-02-17 00:50:00,35.6,31.3,30.03,ESE,112,2.7,-999.0,84,-99.99,,,0.00,Acu-Link.com,2013-02-17 06:50:00,
2013-02-17 01:06:00,35.6,31.5,30.02,ESE,112,3.1,-999.0,85,-99.99,,,0.00,Acu-Link.com,2013-02-17 07:06:00,
2013-02-17 01:21:00,35.8,31.4,30.01,ESE,112,4.3,-999.0,84,-99.99,,,0.00,Acu-Link.com,2013-02-17 07:21:00,
2013-02-17 01:36:00,35.6,31.3,30.01,ESE,112,4.3,-999.0,84,-99.99,,,0.00,Acu-Link.com,2013-02-17 07:36:00,
2013-02-17 01:51:00,36.1,31.2,30.01,ESE,112,4.7,-999.0,82,-99.99,,,0.00,Acu-Link.com,2013-02-17 07:51:00,
2013-02-17 02:06:00,37.0,31.5,30.00,SSE,157,4.3,-999.0,80,-99.99,,,0.00,Acu-Link.com,2013-02-17 08:06:00,
2013-02-17 02:21:00,37.0,31.1,30.00,ESE,112,6.3,-999.0,79,-99.99,,,0.00,Acu-Link.com,2013-02-17 08:21:00,
2013-02-17 02:36:00,36.9,31.0,30.00,ESE,112,4.7,-999.0,79,-99.99,,,0.00,Acu-Link.com,2013-02-17 08:36:00,
2013-02-17 02:51:00,36.5,30.9,29.99,SE,135,5.1,-999.0,80,-99.99,,,0.00,Acu-Link.com,2013-02-17 08:51:00,
2013-02-17 03:17:00,36.3,30.8,29.99,SE,135,6.3,-999.0,80,-99.99,,,0.00,Acu-Link.com,2013-02-17 09:17:00,
2013-02-17 03:32:00,35.4,30.8,29.98,ESE,112,4.3,-999.0,83,-99.99,,,0.00,Acu-Link.com,2013-02-17 09:32:00,
2013-02-17 03:47:00,34.7,30.7,29.97,ESE,112,4.7,-999.0,85,-99.99,,,0.00,Acu-Link.com,2013-02-17 09:47:00,
2013-02-17 04:02:00,33.3,30.1,29.97,East,90,2.7,-999.0,88,-99.99,,,0.00,Acu-Link.com,2013-02-17 10:02:00,
2013-02-17 04:17:00,32.2,30.1,29.96,ESE,112,3.8,-999.0,92,-99.99,,,0.00,Acu-Link.com,2013-02-17 10:17:00,
2013-02-17 04:32:00,32.2,29.9,29.95,ESE,112,4.7,-999.0,91,-99.99,,,0.00,Acu-Link.com,2013-02-17 10:32:00,
2013-02-17 04:47:00,32.5,29.9,29.95,ESE,112,6.3,-999.0,90,-99.99,,,0.00,Acu-Link.com,2013-02-17 10:47:00,
2013-02-17 05:02:00,32.9,30.0,29.95,ESE,112,6.3,-999.0,89,-99.99,,,0.00,Acu-Link.com,2013-02-17 11:02:00,
2013-02-17 05:17:00,33.8,30.1,29.95,ESE,112,7.4,-999.0,86,-99.99,,,0.00,Acu-Link.com,2013-02-17 11:17:00,
2013-02-17 05:33:00,33.3,29.8,29.95,ESE,112,5.1,-999.0,87,-99.99,,,0.00,Acu-Link.com,2013-02-17 11:33:00,
2013-02-17 05:48:00,33.4,30.3,29.95,ESE,112,6.3,-999.0,88,-99.99,,,0.00,Acu-Link.com,2013-02-17 11:48:00,
2013-02-17 06:03:00,33.1,29.9,29.95,ESE,112,6.3,-999.0,88,-99.99,,,0.00,Acu-Link.com,2013-02-17 12:03:00,
2013-02-17 06:18:00,32.4,30.0,29.95,ESE,112,5.1,-999.0,91,-99.99,,,0.00,Acu-Link.com,2013-02-17 12:18:00,
2013-02-17 06:33:00,31.8,29.8,29.95,ESE,112,5.1,-999.0,92,-99.99,,,0.00,Acu-Link.com,2013-02-17 12:33:00,
2013-02-17 06:48:00,31.6,29.9,29.95,SE,135,5.8,-999.0,93,-99.99,,,0.00,Acu-Link.com,2013-02-17 12:48:00,
2013-02-17 07:03:00,32.0,30.2,29.94,ESE,112,7.8,-999.0,93,-99.99,,,0.00,Acu-Link.com,2013-02-17 13:03:00,
2013-02-17 07:18:00,31.6,29.9,29.94,ESE,112,6.7,-999.0,93,-99.99,,,0.00,Acu-Link.com,2013-02-17 13:18:00,
2013-02-17 07:33:00,32.0,30.2,29.94,SE,135,7.8,-999.0,93,-99.99,,,0.00,Acu-Link.com,2013-02-17 13:33:00,
2013-02-17 07:48:00,32.9,30.0,29.94,SE,135,6.3,-999.0,89,-99.99,,,0.00,Acu-Link.com,2013-02-17 13:48:00,
2013-02-17 08:03:00,34.2,30.7,29.94,ESE,112,7.8,-999.0,87,-99.99,,,0.00,Acu-Link.com,2013-02-17 14:03:00,
2013-02-17 08:18:00,34.9,30.8,29.94,ESE,112,8.3,-999.0,85,-99.99,,,0.00,Acu-Link.com,2013-02-17 14:18:00,
2013-02-17 08:33:00,37.6,32.0,29.94,ESE,112,6.7,-999.0,80,-99.99,,,0.00,Acu-Link.com,2013-02-17 14:33:00,
2013-02-17 08:48:00,39.6,32.3,29.94,SE,135,6.7,-999.0,75,-99.99,,,0.00,Acu-Link.com,2013-02-17 14:48:00,
2013-02-17 09:03:00,41.0,33.4,29.94,SE,135,6.7,-999.0,74,-99.99,,,0.00,Acu-Link.com,2013-02-17 15:03:00,
2013-02-17 09:18:00,43.0,33.9,29.94,SE,135,6.3,-999.0,70,-99.99,,,0.00,Acu-Link.com,2013-02-17 15:18:00,
2013-02-17 09:33:00,44.8,34.5,29.94,SE,135,6.7,-999.0,67,-99.99,,,0.00,Acu-Link.com,2013-02-17 15:33:00,
2013-02-17 09:48:00,47.8,35.1,29.93,SSE,157,7.4,-999.0,61,-99.99,,,0.00,Acu-Link.com,2013-02-17 15:48:00,
2013-02-17 10:04:00,48.2,34.6,29.93,SSW,202,8.9,-999.0,59,-99.99,,,0.00,Acu-Link.com,2013-02-17 16:04:00,
2013-02-17 10:19:00,50.2,36.4,29.93,South,180,5.8,-999.0,59,-99.99,,,0.00,Acu-Link.com,2013-02-17 16:19:00,
2013-02-17 10:34:00,52.0,34.9,29.92,South,180,6.3,-999.0,52,-99.99,,,0.00,Acu-Link.com,2013-02-17 16:34:00,
2013-02-17 10:49:00,52.9,35.3,29.92,South,180,9.4,-999.0,51,-99.99,,,0.00,Acu-Link.com,2013-02-17 16:49:00,
2013-02-17 11:04:00,54.5,36.2,29.91,South,180,10.3,-999.0,50,-99.99,,,0.00,Acu-Link.com,2013-02-17 17:04:00,
2013-02-17 11:19:00,55.0,35.7,29.90,South,180,9.8,-999.0,48,-99.99,,,0.00,Acu-Link.com,2013-02-17 17:19:00,
2013-02-17 11:34:00,57.2,35.5,29.90,SSW,202,9.4,-999.0,44,-99.99,,,0.00,Acu-Link.com,2013-02-17 17:34:00,
2013-02-17 11:49:00,57.4,35.7,29.89,South,180,13.4,-999.0,44,-99.99,,,0.00,Acu-Link.com,2013-02-17 17:49:00,
2013-02-17 12:04:00,58.5,34.8,29.88,SSW,202,9.4,-999.0,41,-99.99,,,0.00,Acu-Link.com,2013-02-17 18:04:00,
2013-02-17 12:19:00,60.4,34.7,29.86,South,180,12.5,-999.0,38,-99.99,,,0.00,Acu-Link.com,2013-02-17 18:19:00,
2013-02-17 12:34:00,61.7,35.8,29.86,South,180,11.4,-999.0,38,-99.99,,,0.00,Acu-Link.com,2013-02-17 18:34:00,
2013-02-17 12:49:00,62.4,34.4,29.85,SSW,202,14.5,-999.0,35,-99.99,,,0.00,Acu-Link.com,2013-02-17 18:49:00,
2013-02-17 13:04:00,64.2,33.0,29.83,South,180,8.3,-999.0,31,-99.99,,,0.00,Acu-Link.com,2013-02-17 19:04:00,
2013-02-17 13:19:00,65.3,30.5,29.82,SSE,157,15.0,-999.0,27,-99.99,,,0.00,Acu-Link.com,2013-02-17 19:19:00,
2013-02-17 13:34:00,66.0,31.1,29.80,South,180,9.8,-999.0,27,-99.99,,,0.00,Acu-Link.com,2013-02-17 19:34:00,
2013-02-17 13:50:00,67.6,29.6,29.79,SSW,202,14.1,-999.0,24,-99.99,,,0.00,Acu-Link.com,2013-02-17 19:50:00,
2013-02-17 14:05:00,68.5,27.1,29.79,SSW,202,14.5,-999.0,21,-99.99,,,0.00,Acu-Link.com,2013-02-17 20:05:00,
2013-02-17 14:20:00,69.8,10.8,29.76,SSW,202,11.4,-999.0,10,-99.99,,,0.00,Acu-Link.com,2013-02-17 20:20:00,
2013-02-17 14:35:00,71.4,71.1,29.76,SSW,202,14.5,-999.0,99,-99.99,,,0.00,Acu-Link.com,2013-02-17 20:35:00,
2013-02-17 14:50:00,71.6,71.3,29.75,South,180,15.0,-999.0,99,-99.99,,,0.00,Acu-Link.com,2013-02-17 20:50:00,
2013-02-17 15:05:00,71.6,71.3,29.74,SSW,202,12.5,-999.0,99,-99.99,,,0.00,Acu-Link.com,2013-02-17 21:05:00,
2013-02-17 15:20:00,72.3,72.0,29.73,SSW,202,11.4,-999.0,99,-99.99,,,0.00,Acu-Link.com,2013-02-17 21:20:00,
2013-02-17 15:36:00,73.4,73.1,29.72,SW,225,14.5,-999.0,99,-99.99,,,0.00,Acu-Link.com,2013-02-17 21:36:00,
2013-02-17 15:51:00,73.6,73.3,29.72,SSW,202,17.0,-999.0,99,-99.99,,,0.00,Acu-Link.com,2013-02-17 21:51:00,
2013-02-17 16:06:00,73.8,73.5,29.71,South,180,11.4,-999.0,99,-99.99,,,0.00,Acu-Link.com,2013-02-17 22:06:00,
2013-02-17 16:21:00,73.8,73.5,29.70,SSW,202,9.4,-999.0,99,-99.99,,,0.00,Acu-Link.com,2013-02-17 22:21:00,
2013-02-17 16:36:00,73.6,73.3,29.70,South,180,15.4,-999.0,99,-99.99,,,0.00,Acu-Link.com,2013-02-17 22:36:00,
2013-02-17 16:52:00,73.2,72.9,29.69,South,180,16.1,-999.0,99,-99.99,,,0.01,Acu-Link.com,2013-02-17 22:52:00,
2013-02-17 17:07:00,73.2,72.9,29.69,SSW,202,14.1,-999.0,99,-99.99,,,0.02,Acu-Link.com,2013-02-17 23:07:00,
2013-02-17 17:22:00,72.7,72.4,29.68,South,180,16.6,-999.0,99,-99.99,,,0.02,Acu-Link.com,2013-02-17 23:22:00,
2013-02-17 17:37:00,71.4,71.1,29.68,South,180,9.8,-999.0,99,-99.99,,,0.02,Acu-Link.com,2013-02-17 23:37:00,
2013-02-17 17:52:00,70.7,70.4,29.68,SSW,202,11.9,-999.0,99,-99.99,,,0.02,Acu-Link.com,2013-02-17 23:52:00,
2013-02-17 18:08:00,69.1,26.3,29.67,South,180,13.0,-999.0,20,-99.99,,,0.02,Acu-Link.com,2013-02-18 00:08:00,
2013-02-17 18:23:00,67.5,26.2,29.67,South,180,11.9,-999.0,21,-99.99,,,0.02,Acu-Link.com,2013-02-18 00:23:00,
2013-02-17 18:38:00,66.0,28.2,29.67,SSE,157,12.5,-999.0,24,-99.99,,,0.02,Acu-Link.com,2013-02-18 00:38:00,
2013-02-17 18:53:00,65.5,27.7,29.67,South,180,9.4,-999.0,24,-99.99,,,0.02,Acu-Link.com,2013-02-18 00:53:00,
2013-02-17 19:08:00,63.7,29.1,29.67,SSE,157,10.3,-999.0,27,-99.99,,,0.02,Acu-Link.com,2013-02-18 01:08:00,
2013-02-17 19:24:00,63.0,29.4,29.67,SSW,202,13.0,-999.0,28,-99.99,,,0.02,Acu-Link.com,2013-02-18 01:24:00,
2013-02-17 19:39:00,62.8,30.1,29.67,South,180,13.0,-999.0,29,-99.99,,,0.02,Acu-Link.com,2013-02-18 01:39:00,
2013-02-17 19:54:00,61.9,30.9,29.67,SSE,157,11.4,-999.0,31,-99.99,,,0.02,Acu-Link.com,2013-02-18 01:54:00,
2013-02-17 20:09:00,61.7,30.8,29.67,South,180,15.4,-999.0,31,-99.99,,,0.02,Acu-Link.com,2013-02-18 02:09:00,
2013-02-17 20:25:00,62.4,28.9,29.67,South,180,20.6,-999.0,28,-99.99,,,0.02,Acu-Link.com,2013-02-18 02:25:00,
2013-02-17 20:40:00,61.2,29.5,29.67,South,180,11.9,-999.0,30,-99.99,,,0.02,Acu-Link.com,2013-02-18 02:40:00,
2013-02-17 20:55:00,61.9,29.3,29.67,South,180,13.4,-999.0,29,-99.99,,,0.02,Acu-Link.com,2013-02-18 02:55:00,
2013-02-17 21:10:00,61.0,29.3,29.67,South,180,14.1,-999.0,30,-99.99,,,0.02,Acu-Link.com,2013-02-18 03:10:00,
2013-02-17 21:25:00,60.1,29.4,29.67,SW,225,14.5,-999.0,31,-99.99,,,0.02,Acu-Link.com,2013-02-18 03:25:00,
2013-02-17 21:41:00,59.5,28.9,29.68,South,180,16.1,-999.0,31,-99.99,,,0.02,Acu-Link.com,2013-02-18 03:41:00,
2013-02-17 21:56:00,59.7,29.8,29.68,SSW,202,18.1,-999.0,32,-99.99,,,0.02,Acu-Link.com,2013-02-18 03:56:00,
2013-02-17 22:11:00,58.8,30.5,29.68,South,180,13.4,-999.0,34,-99.99,,,0.02,Acu-Link.com,2013-02-18 04:11:00,
2013-02-17 22:26:00,58.3,31.5,29.68,SSE,157,11.9,-999.0,36,-99.99,,,0.02,Acu-Link.com,2013-02-18 04:26:00,
2013-02-17 22:41:00,58.3,32.1,29.68,South,180,11.0,-999.0,37,-99.99,,,0.02,Acu-Link.com,2013-02-18 04:41:00,
2013-02-17 22:57:00,58.1,32.6,29.68,SSE,157,11.4,-999.0,38,-99.99,,,0.02,Acu-Link.com,2013-02-18 04:57:00,
2013-02-17 23:12:00,57.6,33.4,29.67,South,180,16.1,-999.0,40,-99.99,,,0.02,Acu-Link.com,2013-02-18 05:12:00,
2013-02-17 23:27:00,56.1,33.9,29.67,South,180,14.5,-999.0,43,-99.99,,,0.02,Acu-Link.com,2013-02-18 05:27:00,
2013-02-17 23:42:00,54.3,33.4,29.67,South,180,8.9,-999.0,45,-99.99,,,0.02,Acu-Link.com,2013-02-18 05:42:00,
2013-02-17 23:57:00,53.8,33.5,29.67,SE,135,10.3,-999.0,46,-99.99,,,0.02,Acu-Link.com,2013-02-18 05:57:00,